Union Center, Wisconsin
Current Conditions -  °F | °C
As of 6:58 PM on Tuesday 25 Nov 2014 (Local Time) from KVOK Reporting Station
Few Clouds Few Clouds  
Wind Chill:   Ceiling: Unl
Heat Index:   Visibility: 10mi
Dew Point:   Wind: 5mph
Humidity: 100%   Direction: 130°SE
Pressure: 30.09"   Gusts: NA
Location:  43.69°N, 90.27°W
Report Text: KVOK 260058Z 13004KT 10SM FEW020 M13/M13 A3009 RMK AO2A SLP211
Loading
Personal Weather Stations






























Interactive Weather Map New forecast layout! Learn more

10-Day Weather Forecast

Advertisements
Track Severe Weather on mobile